createdAt,value
2022-12-09T00:01:10.716Z,0.48
2022-12-09T00:03:39.130Z,0.47
2022-12-09T00:06:24.353Z,0.45
2022-12-09T00:08:52.425Z,0.47
2022-12-09T00:11:20.942Z,0.55
2022-12-09T00:13:52.887Z,0.59
2022-12-09T00:16:21.240Z,0.52
2022-12-09T00:18:49.470Z,0.53
2022-12-09T00:21:28.608Z,0.51
2022-12-09T00:23:57.589Z,0.45
2022-12-09T00:26:26.600Z,0.44
2022-12-09T00:28:55.612Z,0.44
2022-12-09T00:31:32.737Z,0.45
2022-12-09T00:34:03.662Z,0.46
2022-12-09T00:36:31.024Z,0.44
2022-12-09T00:38:59.183Z,0.42
2022-12-09T00:41:27.514Z,0.44
2022-12-09T00:43:55.052Z,0.49
2022-12-09T00:46:22.751Z,0.52
2022-12-09T00:48:50.441Z,0.52
2022-12-09T00:51:20.441Z,0.56
2022-12-09T00:53:48.307Z,0.57
2022-12-09T00:56:15.430Z,0.59
2022-12-09T00:58:42.967Z,0.58
2022-12-09T01:01:10.130Z,0.58
2022-12-09T01:03:37.656Z,0.57
2022-12-09T01:06:10.194Z,0.57
2022-12-09T01:08:39.324Z,0.58
2022-12-09T01:11:12.663Z,0.55
2022-12-09T01:13:40.045Z,0.55
2022-12-09T01:16:15.712Z,0.54
2022-12-09T01:18:43.380Z,0.54
2022-12-09T01:21:10.612Z,0.52
2022-12-09T01:23:37.833Z,0.51
2022-12-09T01:26:06.902Z,0.52
2022-12-09T01:28:36.620Z,0.54
2022-12-09T01:31:07.284Z,0.55
2022-12-09T01:33:34.786Z,0.50
2022-12-09T01:36:08.582Z,0.48
2022-12-09T01:38:36.346Z,0.50
2022-12-09T01:41:06.630Z,0.47
2022-12-09T01:43:34.071Z,0.46
2022-12-09T01:46:01.622Z,0.49
2022-12-09T01:48:44.770Z,0.49
2022-12-09T01:51:19.568Z,0.50
2022-12-09T01:53:50.836Z,0.49
2022-12-09T01:56:29.284Z,0.46
2022-12-09T01:59:00.643Z,0.42
2022-12-09T02:01:28.472Z,0.40
2022-12-09T02:03:56.214Z,0.38
2022-12-09T02:06:23.887Z,0.43
2022-12-09T02:08:51.846Z,0.41
2022-12-09T02:11:37.040Z,0.37
2022-12-09T02:14:14.723Z,0.36
2022-12-09T02:17:05.213Z,0.36
2022-12-09T02:19:51.418Z,0.38
2022-12-09T02:22:26.676Z,0.41
2022-12-09T02:25:11.348Z,0.44
2022-12-09T02:27:48.697Z,0.45
2022-12-09T02:30:20.474Z,0.37
2022-12-09T02:33:13.450Z,0.36
2022-12-09T02:35:59.806Z,0.37
2022-12-09T02:38:31.946Z,0.37
2022-12-09T02:41:02.236Z,0.38
2022-12-09T02:43:35.499Z,0.44
2022-12-09T02:46:05.403Z,0.44
2022-12-09T02:48:39.018Z,0.43
2022-12-09T02:51:10.290Z,0.51
2022-12-09T02:53:40.830Z,0.60
2022-12-09T02:56:09.806Z,0.49
2022-12-09T02:58:37.394Z,0.51
2022-12-09T03:01:05.245Z,0.47
2022-12-09T03:03:35.093Z,0.38
2022-12-09T03:06:10.174Z,0.29
2022-12-09T03:08:57.448Z,0.26
2022-12-09T03:11:26.521Z,0.27
2022-12-09T03:13:59.398Z,0.24
2022-12-09T03:17:14.482Z,0.23
2022-12-09T03:19:51.037Z,0.19
2022-12-09T03:22:23.526Z,0.21
2022-12-09T03:25:11.148Z,0.23
2022-12-09T03:27:40.720Z,0.21
2022-12-09T03:30:11.268Z,0.22
2022-12-09T03:32:44.487Z,0.22
2022-12-09T03:35:26.755Z,0.23
2022-12-09T03:37:54.487Z,0.24
2022-12-09T03:40:26.231Z,0.23
2022-12-09T03:42:58.944Z,0.26
2022-12-09T03:45:27.191Z,0.21
2022-12-09T03:47:55.546Z,0.23
2022-12-09T03:50:27.408Z,0.31
2022-12-09T03:53:03.982Z,0.19
2022-12-09T03:55:44.622Z,0.20
2022-12-09T03:58:15.090Z,0.20
2022-12-09T04:00:43.660Z,0.18
2022-12-09T04:03:14.801Z,0.14
2022-12-09T04:05:43.239Z,0.13
2022-12-09T04:08:12.172Z,0.08
2022-12-09T04:10:40.506Z,0.11
2022-12-09T04:13:08.011Z,0.15
2022-12-09T04:15:35.450Z,0.23
2022-12-09T04:18:03.238Z,0.24
2022-12-09T04:20:30.845Z,0.24
2022-12-09T04:22:58.048Z,0.21
2022-12-09T04:25:25.640Z,0.20
2022-12-09T04:27:53.577Z,0.23
2022-12-09T04:30:21.919Z,0.23
2022-12-09T04:32:49.507Z,0.25
2022-12-09T04:35:17.035Z,0.19
2022-12-09T04:37:44.580Z,0.23
2022-12-09T04:40:19.743Z,0.29
2022-12-09T04:42:50.610Z,0.30
2022-12-09T04:45:18.108Z,0.28
2022-12-09T04:47:45.788Z,0.27
2022-12-09T04:50:14.109Z,0.25
2022-12-09T04:52:42.395Z,0.26
2022-12-09T04:55:10.298Z,0.30
2022-12-09T04:57:37.662Z,0.33
2022-12-09T05:00:08.801Z,0.33
2022-12-09T05:02:37.582Z,0.37
2022-12-09T05:05:05.847Z,0.42
2022-12-09T05:07:33.755Z,0.37
2022-12-09T05:10:01.585Z,0.39
2022-12-09T05:12:29.684Z,0.30
2022-12-09T05:14:58.956Z,0.36
2022-12-09T05:17:26.907Z,0.31
2022-12-09T05:19:54.778Z,0.29
2022-12-09T05:22:22.396Z,0.22
2022-12-09T05:24:49.791Z,0.18
2022-12-09T05:27:18.464Z,0.19
2022-12-09T05:29:47.089Z,0.12
2022-12-09T05:32:14.652Z,0.13
2022-12-09T05:34:42.145Z,0.16
2022-12-09T05:37:13.521Z,0.25
2022-12-09T05:39:41.376Z,0.27
2022-12-09T05:42:08.807Z,0.29
2022-12-09T05:44:36.840Z,0.23
2022-12-09T05:47:04.776Z,0.20
2022-12-09T05:49:33.143Z,0.17
2022-12-09T05:52:00.930Z,0.16
2022-12-09T05:54:28.837Z,0.14
2022-12-09T05:56:58.159Z,0.14
2022-12-09T05:59:26.021Z,0.08
2022-12-09T06:01:54.999Z,0.09
2022-12-09T06:04:22.947Z,0.07
2022-12-09T06:06:50.894Z,0.01
2022-12-09T06:09:18.368Z,0.04
2022-12-09T06:11:46.094Z,0.05
2022-12-09T06:14:13.388Z,0.03
2022-12-09T06:16:41.741Z,-0.03
2022-12-09T06:19:12.252Z,-0.06
2022-12-09T06:21:41.090Z,-0.09
2022-12-09T06:24:09.311Z,-0.04
2022-12-09T06:26:36.910Z,-0.03
2022-12-09T06:29:04.300Z,-0.03
2022-12-09T06:31:31.851Z,-0.03
2022-12-09T06:34:00.394Z,-0.02
2022-12-09T06:36:30.270Z,0.01
2022-12-09T06:39:05.896Z,0.04
2022-12-09T06:41:37.263Z,0.01
2022-12-09T06:44:04.838Z,-0.02
2022-12-09T06:46:32.228Z,-0.01
2022-12-09T06:49:00.216Z,0.02
2022-12-09T06:51:28.074Z,0.07
2022-12-09T06:53:55.966Z,0.12
2022-12-09T06:56:23.479Z,0.03
2022-12-09T06:58:51.336Z,0.00
2022-12-09T07:01:23.771Z,0.15
2022-12-09T07:03:54.424Z,0.27
2022-12-09T07:06:40.080Z,0.25
2022-12-09T07:09:13.959Z,0.34
2022-12-09T07:11:42.583Z,0.31
2022-12-09T07:14:10.761Z,0.27
2022-12-09T07:16:38.626Z,0.25
2022-12-09T07:19:07.067Z,0.26
2022-12-09T07:21:35.149Z,0.28
2022-12-09T07:24:03.096Z,0.28
2022-12-09T07:26:32.699Z,0.28
2022-12-09T07:29:03.778Z,0.33
2022-12-09T07:31:35.477Z,0.34
2022-12-09T07:34:04.158Z,0.40
2022-12-09T07:36:34.534Z,0.47
2022-12-09T07:39:08.254Z,0.41
2022-12-09T07:41:35.987Z,0.43
2022-12-09T07:44:04.109Z,0.44
2022-12-09T07:46:32.311Z,0.56
2022-12-09T07:49:02.803Z,0.57
2022-12-09T07:51:30.875Z,0.60
2022-12-09T07:53:58.719Z,0.66
2022-12-09T07:56:27.759Z,0.71
2022-12-09T07:58:57.291Z,0.65
2022-12-09T08:01:27.546Z,0.66
2022-12-09T08:03:55.961Z,0.69
2022-12-09T08:06:26.449Z,0.90
2022-12-09T08:08:57.501Z,1.02
2022-12-09T08:11:27.466Z,1.07
2022-12-09T08:14:04.346Z,1.18
2022-12-09T08:16:35.080Z,1.15
2022-12-09T08:19:02.797Z,1.25
2022-12-09T08:21:32.765Z,1.27
2022-12-09T08:24:03.325Z,1.26
2022-12-09T08:26:32.412Z,1.23
2022-12-09T08:29:00.961Z,1.34
2022-12-09T08:31:29.932Z,1.35
2022-12-09T08:33:58.603Z,1.32
2022-12-09T08:36:27.398Z,1.37
2022-12-09T08:38:56.122Z,1.32
2022-12-09T08:41:39.118Z,1.38
2022-12-09T08:44:09.707Z,1.37
2022-12-09T08:46:39.448Z,1.12
2022-12-09T08:49:08.524Z,1.28
2022-12-09T08:51:36.821Z,1.23
2022-12-09T08:54:05.057Z,1.22
2022-12-09T08:56:32.811Z,1.23
2022-12-09T08:59:00.502Z,1.28
2022-12-09T09:01:36.092Z,1.18
2022-12-09T09:04:08.149Z,1.21
2022-12-09T09:06:41.721Z,1.23
2022-12-09T09:09:11.884Z,1.36
2022-12-09T09:11:41.236Z,1.40
2022-12-09T09:14:11.037Z,1.38
2022-12-09T09:16:40.884Z,1.40
2022-12-09T09:19:09.135Z,1.42
2022-12-09T09:21:37.209Z,1.49
2022-12-09T09:24:10.632Z,1.48
2022-12-09T09:26:41.657Z,1.61
2022-12-09T09:29:11.842Z,1.73
2022-12-09T09:31:39.325Z,1.82
2022-12-09T09:34:07.580Z,1.92
2022-12-09T09:36:35.610Z,1.85
2022-12-09T09:39:03.693Z,2.00
2022-12-09T09:41:57.153Z,2.08
2022-12-09T09:44:34.684Z,1.97
2022-12-09T09:47:10.051Z,1.95
2022-12-09T09:49:54.364Z,1.99
2022-12-09T09:52:23.997Z,2.02
2022-12-09T09:54:52.152Z,2.21
2022-12-09T09:57:30.032Z,2.28
2022-12-09T10:00:07.263Z,2.48
2022-12-09T10:02:52.490Z,2.57
2022-12-09T10:05:38.504Z,3.01
2022-12-09T10:08:21.966Z,3.49
2022-12-09T10:11:14.060Z,3.41
2022-12-09T10:13:52.722Z,3.38
2022-12-09T10:16:26.933Z,3.07
2022-12-09T10:19:12.338Z,2.78
2022-12-09T10:21:43.474Z,2.63
2022-12-09T10:24:21.137Z,2.84
2022-12-09T10:26:57.769Z,2.86
2022-12-09T10:29:49.139Z,2.64
2022-12-09T10:32:19.615Z,2.54
2022-12-09T10:34:48.509Z,2.29
2022-12-09T10:37:36.103Z,2.25
2022-12-09T10:40:10.392Z,2.11
2022-12-09T10:43:10.291Z,1.96
2022-12-09T10:46:24.051Z,1.92
2022-12-09T10:48:53.920Z,1.78
2022-12-09T10:51:35.847Z,1.62
2022-12-09T10:54:26.435Z,1.65
2022-12-09T10:57:22.777Z,1.65
2022-12-09T11:00:08.449Z,1.68
2022-12-09T11:02:36.159Z,1.61
2022-12-09T11:05:22.922Z,1.74
2022-12-09T11:07:54.656Z,1.94
2022-12-09T11:10:25.740Z,2.08
2022-12-09T11:13:02.986Z,2.26
2022-12-09T11:15:39.083Z,2.27
2022-12-09T11:18:18.664Z,2.32
2022-12-09T11:20:58.215Z,2.14
2022-12-09T11:23:26.390Z,2.24
2022-12-09T11:26:15.669Z,2.19
2022-12-09T11:28:42.814Z,1.96
2022-12-09T11:31:29.912Z,2.08
2022-12-09T11:34:26.325Z,1.95
2022-12-09T11:36:56.520Z,2.10
2022-12-09T11:39:31.340Z,2.11
2022-12-09T11:42:23.115Z,2.18
2022-12-09T11:44:56.787Z,2.43
2022-12-09T11:47:57.209Z,2.43
2022-12-09T11:50:23.922Z,2.71
2022-12-09T11:53:29.410Z,2.70
2022-12-09T11:56:04.108Z,2.78
2022-12-09T11:58:38.650Z,2.88
2022-12-09T12:01:13.157Z,2.75
2022-12-09T12:03:47.867Z,2.58
2022-12-09T12:06:21.588Z,2.73
2022-12-09T12:08:59.172Z,2.87
2022-12-09T12:11:34.520Z,3.01
2022-12-09T12:14:14.947Z,3.26
2022-12-09T12:17:02.243Z,3.10
2022-12-09T12:19:32.469Z,3.20
2022-12-09T12:22:47.987Z,3.03
2022-12-09T12:25:32.532Z,2.73
2022-12-09T12:28:50.485Z,2.56
2022-12-09T12:31:41.397Z,2.50
2022-12-09T12:34:27.979Z,2.52
2022-12-09T12:37:00.376Z,2.63
2022-12-09T12:39:50.047Z,2.67
2022-12-09T12:42:25.992Z,2.68
2022-12-09T12:45:31.282Z,2.95
2022-12-09T12:48:04.813Z,2.98
2022-12-09T12:51:00.253Z,3.01
2022-12-09T12:53:44.650Z,3.19
2022-12-09T12:56:23.356Z,2.99
2022-12-09T12:59:04.401Z,3.03
2022-12-09T13:01:31.597Z,3.03
2022-12-09T13:04:11.197Z,2.83
2022-12-09T13:06:59.978Z,2.93
2022-12-09T13:10:01.548Z,2.66
2022-12-09T13:13:01.738Z,2.34
2022-12-09T13:15:40.322Z,2.30
2022-12-09T13:18:14.446Z,2.08
2022-12-09T13:20:51.865Z,1.84
2022-12-09T13:23:37.682Z,1.74
2022-12-09T13:26:26.130Z,1.72
2022-12-09T13:29:25.886Z,1.59
2022-12-09T13:32:14.153Z,1.57
2022-12-09T13:34:53.025Z,1.61
2022-12-09T13:37:41.775Z,1.72
2022-12-09T13:40:38.802Z,1.66
2022-12-09T13:43:12.142Z,1.66
2022-12-09T13:45:42.301Z,1.47
2022-12-09T13:48:17.038Z,1.43
2022-12-09T13:50:57.521Z,1.40
2022-12-09T13:53:44.195Z,1.31
2022-12-09T13:56:27.095Z,1.32
2022-12-09T13:59:03.055Z,1.27
2022-12-09T14:01:54.776Z,1.28
2022-12-09T14:04:29.417Z,1.33
2022-12-09T14:07:27.185Z,1.22
2022-12-09T14:09:57.110Z,1.12
2022-12-09T14:12:34.095Z,1.00
2022-12-09T14:15:05.376Z,0.89
2022-12-09T14:17:38.167Z,0.81
2022-12-09T14:20:34.143Z,0.74
2022-12-09T14:23:07.530Z,0.72
2022-12-09T14:25:34.679Z,0.81
2022-12-09T14:28:14.005Z,0.80
2022-12-09T14:30:47.103Z,0.87
2022-12-09T14:33:37.719Z,0.78
2022-12-09T14:36:14.142Z,0.79
2022-12-09T14:39:07.901Z,0.74
2022-12-09T14:41:39.861Z,0.82
2022-12-09T14:44:27.031Z,0.87
2022-12-09T14:47:15.306Z,0.79
2022-12-09T14:49:48.935Z,0.79
2022-12-09T14:52:29.507Z,0.69
2022-12-09T14:55:02.181Z,0.58
2022-12-09T14:57:44.056Z,0.52
2022-12-09T15:00:32.541Z,0.58
2022-12-09T15:06:01.253Z,0.63
2022-12-09T15:08:29.768Z,0.70
2022-12-09T15:10:57.770Z,0.65
2022-12-09T15:13:25.454Z,0.61
2022-12-09T15:15:52.763Z,0.52
2022-12-09T15:18:26.870Z,0.53
2022-12-09T15:20:57.566Z,0.43
2022-12-09T15:23:27.899Z,0.44
2022-12-09T15:25:57.968Z,0.33
2022-12-09T15:28:28.208Z,0.33
2022-12-09T15:31:07.235Z,0.38
2022-12-09T15:33:44.728Z,0.31
2022-12-09T15:36:22.667Z,0.23
2022-12-09T15:39:06.996Z,0.13
2022-12-09T15:42:09.447Z,0.07
2022-12-09T15:44:53.447Z,0.03
2022-12-09T15:47:29.518Z,-0.04
2022-12-09T15:50:11.226Z,-0.07
2022-12-09T15:52:48.995Z,-0.06
2022-12-09T15:55:32.589Z,-0.15
2022-12-09T15:58:03.843Z,-0.08
2022-12-09T16:00:31.121Z,-0.16
2022-12-09T16:02:58.708Z,-0.18
2022-12-09T16:05:26.131Z,-0.16
2022-12-09T16:07:59.022Z,-0.12
2022-12-09T16:10:27.519Z,-0.12
2022-12-09T16:13:10.964Z,-0.06
2022-12-09T16:15:52.954Z,-0.01
2022-12-09T16:18:42.349Z,0.03
2022-12-09T16:21:15.723Z,0.07
2022-12-09T16:23:45.673Z,0.14
2022-12-09T16:26:32.735Z,0.08
2022-12-09T16:29:04.759Z,0.04
2022-12-09T16:31:32.622Z,0.00
2022-12-09T16:33:59.991Z,0.04
2022-12-09T16:36:31.997Z,0.01
2022-12-09T16:39:08.148Z,-0.03
2022-12-09T16:41:53.650Z,0.08
2022-12-09T16:44:29.320Z,0.05
2022-12-09T16:47:25.058Z,0.02
2022-12-09T16:49:52.967Z,0.09
2022-12-09T16:52:24.105Z,0.02
2022-12-09T16:54:51.771Z,0.02
2022-12-09T16:57:20.157Z,-0.04
2022-12-09T16:59:48.277Z,-0.16
2022-12-09T17:02:24.254Z,-0.15
2022-12-09T17:04:52.180Z,-0.01
2022-12-09T17:07:19.366Z,-0.04
2022-12-09T17:09:46.495Z,0.06
2022-12-09T17:12:13.797Z,0.05
2022-12-09T17:14:41.131Z,0.01
2022-12-09T17:17:08.399Z,0.05
2022-12-09T17:19:35.765Z,-0.04
2022-12-09T17:22:03.293Z,0.07
2022-12-09T17:24:30.585Z,0.07
2022-12-09T17:26:57.856Z,0.05
2022-12-09T17:29:25.195Z,0.14
2022-12-09T17:31:52.532Z,0.17
2022-12-09T17:34:21.113Z,0.18
2022-12-09T17:36:48.470Z,0.17
2022-12-09T17:39:16.263Z,0.18
2022-12-09T17:41:43.521Z,0.16
2022-12-09T17:44:10.795Z,0.09
2022-12-09T17:46:38.003Z,0.07
2022-12-09T17:49:05.236Z,-0.01
2022-12-09T17:51:35.988Z,-0.06
2022-12-09T17:54:04.621Z,-0.09
2022-12-09T17:56:32.177Z,-0.14
2022-12-09T17:59:10.126Z,-0.14
2022-12-09T18:01:38.893Z,-0.28
2022-12-09T18:04:09.725Z,-0.28
2022-12-09T18:06:39.631Z,-0.28
2022-12-09T18:09:09.227Z,-0.27
2022-12-09T18:11:36.899Z,-0.23
2022-12-09T18:14:04.805Z,-0.17
2022-12-09T18:16:32.492Z,-0.17
2022-12-09T18:19:12.049Z,-0.17
2022-12-09T18:21:39.529Z,-0.12
2022-12-09T18:24:07.125Z,-0.11
2022-12-09T18:26:41.072Z,-0.15
2022-12-09T18:29:10.208Z,-0.18
2022-12-09T18:31:38.623Z,-0.24
2022-12-09T18:34:06.070Z,-0.24
2022-12-09T18:36:34.846Z,-0.18
2022-12-09T18:39:02.216Z,-0.24
2022-12-09T18:41:31.329Z,-0.25
2022-12-09T18:44:02.502Z,-0.28
2022-12-09T18:46:33.567Z,-0.28
2022-12-09T18:49:07.354Z,-0.33
2022-12-09T18:51:35.272Z,-0.32
2022-12-09T18:54:04.007Z,-0.37
2022-12-09T18:56:32.028Z,-0.38
2022-12-09T18:59:08.678Z,-0.34
2022-12-09T19:01:40.785Z,-0.34
2022-12-09T19:04:14.990Z,-0.42
2022-12-09T19:06:45.117Z,-0.47
2022-12-09T19:09:16.109Z,-0.50
2022-12-09T19:11:44.996Z,-0.50
2022-12-09T19:14:14.058Z,-0.45
2022-12-09T19:16:42.471Z,-0.38
2022-12-09T19:19:13.870Z,-0.45
2022-12-09T19:21:42.200Z,-0.44
2022-12-09T19:24:18.143Z,-0.39
2022-12-09T19:26:45.562Z,-0.36
2022-12-09T19:29:13.871Z,-0.43
2022-12-09T19:31:46.123Z,-0.48
2022-12-09T19:34:15.422Z,-0.44
2022-12-09T19:36:43.812Z,-0.44
2022-12-09T19:39:13.218Z,-0.38
2022-12-09T19:41:41.430Z,-0.40
2022-12-09T19:44:44.414Z,-0.34
2022-12-09T19:47:10.008Z,-0.34
2022-12-09T19:49:37.717Z,-0.35
2022-12-09T19:52:04.908Z,-0.35
2022-12-09T19:54:32.144Z,-0.39
2022-12-09T19:57:00.187Z,-0.35
2022-12-09T19:59:28.464Z,-0.35
2022-12-09T20:01:55.947Z,-0.40
2022-12-09T20:07:16.606Z,-0.39
2022-12-09T20:09:44.621Z,-0.36
2022-12-09T20:12:11.959Z,-0.36
2022-12-09T20:14:39.393Z,-0.32
2022-12-09T20:17:07.021Z,-0.32
2022-12-09T20:19:35.878Z,-0.28
2022-12-09T20:22:03.130Z,-0.16
2022-12-09T20:24:30.810Z,-0.24
2022-12-09T20:26:58.145Z,-0.22
2022-12-09T20:29:25.530Z,-0.15
2022-12-09T20:31:53.261Z,-0.12
2022-12-09T20:34:20.962Z,-0.17
2022-12-09T20:36:48.680Z,-0.12
2022-12-09T20:39:20.950Z,-0.13
2022-12-09T20:41:48.915Z,-0.06
2022-12-09T20:44:17.403Z,-0.12
2022-12-09T20:46:48.206Z,-0.15
2022-12-09T20:49:16.655Z,-0.23
2022-12-09T20:51:46.021Z,-0.26
2022-12-09T20:54:13.816Z,-0.24
2022-12-09T20:56:41.123Z,-0.27
2022-12-09T20:59:10.594Z,-0.22
2022-12-09T21:01:38.802Z,-0.28
2022-12-09T21:04:07.047Z,-0.31
2022-12-09T21:06:37.507Z,-0.24
2022-12-09T21:09:08.025Z,-0.31
2022-12-09T21:12:35.138Z,-0.38
2022-12-09T21:15:03.008Z,-0.35
2022-12-09T21:17:30.230Z,-0.34
2022-12-09T21:19:57.626Z,-0.35
2022-12-09T21:22:24.919Z,-0.36
2022-12-09T21:24:52.118Z,-0.31
2022-12-09T21:27:19.270Z,-0.26
2022-12-09T21:29:46.610Z,-0.46
2022-12-09T21:32:13.725Z,-0.34
2022-12-09T21:34:41.065Z,-0.47
2022-12-09T21:37:08.333Z,-0.46
2022-12-09T21:39:35.543Z,-0.50
2022-12-09T21:42:02.932Z,-0.47
2022-12-09T21:44:30.113Z,-0.45
2022-12-09T21:46:57.278Z,-0.48
2022-12-09T21:49:24.523Z,-0.48
2022-12-09T21:51:52.176Z,-0.48
2022-12-09T21:54:19.457Z,-0.44
2022-12-09T21:56:48.775Z,-0.49
2022-12-09T21:59:16.019Z,-0.51
2022-12-09T22:01:43.778Z,-0.46
2022-12-09T22:04:12.179Z,-0.51
2022-12-09T22:06:41.477Z,-0.55
2022-12-09T22:09:09.082Z,-0.58
2022-12-09T22:11:38.098Z,-0.59
2022-12-09T22:14:07.238Z,-0.66
2022-12-09T22:16:40.508Z,-0.63
2022-12-09T22:19:08.905Z,-0.65
2022-12-09T22:21:36.917Z,-0.72
2022-12-09T22:24:06.426Z,-0.69
2022-12-09T22:26:33.889Z,-0.69
2022-12-09T22:29:03.172Z,-0.66
2022-12-09T22:31:34.051Z,-0.72
2022-12-09T22:34:04.707Z,-0.64
2022-12-09T22:36:32.274Z,-0.70
2022-12-09T22:38:59.528Z,-0.69
2022-12-09T22:41:28.311Z,-0.63
2022-12-09T22:43:56.568Z,-0.63
2022-12-09T22:46:29.424Z,-0.63
2022-12-09T22:48:59.818Z,-0.55
2022-12-09T22:51:29.757Z,-0.60
2022-12-09T22:53:58.851Z,-0.61
2022-12-09T22:56:26.505Z,-0.66
2022-12-09T22:58:54.172Z,-0.64
2022-12-09T23:01:25.716Z,-0.63
2022-12-09T23:03:54.950Z,-0.62
2022-12-09T23:06:23.243Z,-0.61
2022-12-09T23:08:50.382Z,-0.60
2022-12-09T23:11:22.940Z,-0.57
2022-12-09T23:13:50.557Z,-0.58
2022-12-09T23:16:21.071Z,-0.66
2022-12-09T23:18:49.806Z,-0.61
2022-12-09T23:21:19.797Z,-0.66
2022-12-09T23:23:47.483Z,-0.61
2022-12-09T23:26:17.860Z,-0.72
2022-12-09T23:28:47.818Z,-0.67
2022-12-09T23:31:16.664Z,-0.73
2022-12-09T23:33:46.108Z,-0.68
2022-12-09T23:36:19.414Z,-0.72
2022-12-09T23:38:50.460Z,-0.72
2022-12-09T23:41:19.413Z,-0.67
2022-12-09T23:43:48.253Z,-0.61
2022-12-09T23:46:17.853Z,-0.76
2022-12-09T23:48:46.329Z,-0.76
2022-12-09T23:51:19.681Z,-0.79
2022-12-09T23:53:48.408Z,-0.83
2022-12-09T23:56:18.478Z,-0.77
2022-12-09T23:58:46.667Z,-0.74
